Pagrindinis puslapis
METAR-TAF:

METAR-TAF

Oro uostai :

Viterbo oro uostas

Viterbas, Italija

platuma: 42-26N, ilguma: 012-03E, Aukštis: 300 m

Dabartinis oras

Ataskaita buvo paskelbta 47 minutes, ne 17:55 UTC
Temperatūra 20°C
Drėgmė 88%
Slėgis 1016 hPa
Matomumas 10 km arba daugiau
Mažai debesys ne aukštis 1800 ft

METAR: LIRV 191755Z /////KT 9999 FEW018 20/18 Q1016

Laikas: 20:42 (18:42 UTC)

Prognozė

Ataskaita buvo paskelbta 1 valandą ir 42 minutes, ne 17:00 UTC
Prognozė galioja nuo 19 metu 18 UTC su 20 metu 03 UTC
Vėjas 12 kt iš Šiaurės/Šiaurės Rytų
Matomumas 10 km arba daugiau
Mažai debesys ne aukštis 2000 ft

TAF: LIRV 191700Z 1918/2003 03012KT 9999 FEW020

Orai ataskaitas ir orų prognozės (METAR, TAF).

turimą stotys yra geltonos ir raudonos taškus žemėlapyje.

Perkelti pele per norėdami pamatyti stoties vardą.

Tada spustelėkite, norėdami matyti oro stebėjimo ir prognozės.

Norėdami pakeisti žemėlapį: spustelėkite ant žalios mygtukų su juodo kryžiaus žemyn,; žalią mygtuką su brūkšneliu, jei norite nutolinti; arba žalių rodyklių gretimoms žemėlapius.


METAR-TAF: